createdAt,value
2022-08-03T00:00:39.953Z,11.70
2022-08-03T00:03:08.372Z,11.43
2022-08-03T00:05:37.890Z,11.38
2022-08-03T00:08:07.050Z,10.60
2022-08-03T00:10:38.297Z,10.90
2022-08-03T00:13:06.790Z,11.15
2022-08-03T00:15:35.622Z,11.40
2022-08-03T00:18:05.522Z,11.15
2022-08-03T00:20:34.200Z,10.88
2022-08-03T00:23:02.680Z,13.35
2022-08-03T00:25:31.430Z,11.48
2022-08-03T00:27:59.855Z,11.95
2022-08-03T00:30:37.811Z,9.38
2022-08-03T00:33:11.031Z,11.73
2022-08-03T00:35:52.350Z,10.30
2022-08-03T00:38:39.120Z,9.10
2022-08-03T00:41:27.471Z,9.70
2022-08-03T00:44:33.772Z,9.43
2022-08-03T00:47:30.331Z,11.27
2022-08-03T00:50:01.351Z,10.68
2022-08-03T00:52:38.692Z,8.73
2022-08-03T00:55:09.920Z,10.13
2022-08-03T00:57:41.594Z,9.13
2022-08-03T01:00:13.490Z,10.30
2022-08-03T01:06:09.660Z,8.80
2022-08-03T01:08:54.381Z,9.90
2022-08-03T01:11:59.835Z,10.02
2022-08-03T01:14:34.646Z,8.02
2022-08-03T01:17:12.682Z,7.70
2022-08-03T01:19:53.260Z,8.90
2022-08-03T01:22:53.851Z,9.70
2022-08-03T01:25:36.542Z,8.77
2022-08-03T01:28:30.335Z,10.15
2022-08-03T01:31:06.621Z,7.70
2022-08-03T01:33:40.845Z,8.73
2022-08-03T01:36:14.271Z,7.65
2022-08-03T01:38:46.282Z,7.45
2022-08-03T01:41:20.270Z,9.23
2022-08-03T01:44:26.863Z,8.05
2022-08-03T01:46:48.783Z,8.90
2022-08-03T01:49:18.741Z,10.00
2022-08-03T01:52:03.655Z,9.18
2022-08-03T01:54:36.346Z,10.80
2022-08-03T01:57:05.521Z,10.10
2022-08-03T01:59:37.251Z,8.88
2022-08-03T02:02:15.495Z,8.73
2022-08-03T02:05:00.435Z,6.80
2022-08-03T02:07:30.643Z,7.75
2022-08-03T02:10:00.999Z,7.53
2022-08-03T02:12:31.312Z,7.07
2022-08-03T02:15:01.793Z,7.75
2022-08-03T02:17:39.466Z,8.18
2022-08-03T02:20:10.553Z,7.20
2022-08-03T02:22:41.489Z,8.30
2022-08-03T02:25:11.436Z,7.10
2022-08-03T02:27:44.470Z,7.45
2022-08-03T02:30:14.999Z,6.72
2022-08-03T02:32:50.114Z,8.35
2022-08-03T02:35:20.420Z,7.55
2022-08-03T02:37:53.485Z,7.35
2022-08-03T02:40:24.442Z,7.18
2022-08-03T02:42:59.049Z,8.93
2022-08-03T02:45:29.264Z,7.72
2022-08-03T02:48:04.319Z,7.38
2022-08-03T02:50:35.354Z,10.10
2022-08-03T02:53:04.670Z,8.23
2022-08-03T02:55:36.589Z,10.30
2022-08-03T02:58:14.789Z,7.57
2022-08-03T03:00:46.215Z,9.65
2022-08-03T03:03:16.980Z,5.82
2022-08-03T03:05:53.596Z,7.50
2022-08-03T03:08:29.017Z,6.97
2022-08-03T03:10:59.648Z,7.72
2022-08-03T03:13:30.196Z,5.85
2022-08-03T03:16:01.394Z,8.35
2022-08-03T03:18:33.561Z,8.13
2022-08-03T03:21:04.292Z,7.38
2022-08-03T03:23:36.740Z,6.55
2022-08-03T03:26:06.078Z,8.52
2022-08-03T03:28:37.141Z,7.30
2022-08-03T03:31:07.464Z,7.60
2022-08-03T03:33:38.819Z,7.22
2022-08-03T03:36:09.939Z,6.97
2022-08-03T03:38:38.459Z,6.38
2022-08-03T03:41:07.239Z,6.70
2022-08-03T03:43:35.839Z,7.70
2022-08-03T03:46:05.108Z,6.90
2022-08-03T03:48:33.612Z,7.90
2022-08-03T03:51:04.639Z,6.20
2022-08-03T03:53:33.142Z,9.27
2022-08-03T03:56:02.517Z,8.00
2022-08-03T03:58:32.575Z,7.57
2022-08-03T04:01:01.433Z,7.18
2022-08-03T04:03:29.952Z,7.43
2022-08-03T04:06:16.444Z,7.18
2022-08-03T04:09:15.519Z,5.82
2022-08-03T04:11:49.138Z,6.28
2022-08-03T04:14:21.329Z,6.78
2022-08-03T04:16:53.638Z,6.35
2022-08-03T04:19:29.479Z,7.28
2022-08-03T04:22:01.598Z,6.28
2022-08-03T04:24:36.658Z,6.22
2022-08-03T04:27:08.758Z,7.13
2022-08-03T04:29:48.114Z,7.35
2022-08-03T04:32:18.553Z,6.93
2022-08-03T04:34:47.505Z,8.75
2022-08-03T04:37:20.390Z,5.50
2022-08-03T04:39:52.556Z,7.15
2022-08-03T04:42:26.029Z,6.57
2022-08-03T04:45:01.109Z,8.75
2022-08-03T04:47:32.540Z,10.32
2022-08-03T04:50:02.728Z,7.20
2022-08-03T04:52:31.728Z,7.47
2022-08-03T04:55:01.644Z,7.78
2022-08-03T04:57:30.069Z,5.40
2022-08-03T05:00:03.210Z,6.93
2022-08-03T05:02:33.054Z,6.75
2022-08-03T05:05:01.730Z,6.95
2022-08-03T05:07:35.547Z,6.03
2022-08-03T05:10:14.753Z,8.00
2022-08-03T05:12:46.201Z,7.78
2022-08-03T05:15:15.421Z,7.07
2022-08-03T05:17:43.818Z,6.75
2022-08-03T05:20:13.208Z,6.30
2022-08-03T05:22:44.988Z,7.55
2022-08-03T05:25:17.312Z,7.93
2022-08-03T05:27:48.413Z,7.68
2022-08-03T05:30:26.758Z,8.10
2022-08-03T05:33:01.498Z,7.15
2022-08-03T05:36:01.622Z,7.20
2022-08-03T05:38:20.866Z,7.38
2022-08-03T05:41:21.124Z,8.63
2022-08-03T05:43:46.990Z,6.15
2022-08-03T05:46:15.655Z,9.35
2022-08-03T05:48:44.442Z,5.90
2022-08-03T05:51:13.738Z,7.47
2022-08-03T05:53:42.947Z,8.18
2022-08-03T05:56:15.689Z,9.40
2022-08-03T05:58:46.306Z,6.55
2022-08-03T06:01:15.149Z,6.57
2022-08-03T06:03:43.654Z,6.60
2022-08-03T06:06:12.238Z,7.15
2022-08-03T06:08:40.791Z,6.68
2022-08-03T06:11:09.934Z,7.93
2022-08-03T06:13:40.723Z,5.97
2022-08-03T06:16:09.155Z,7.57
2022-08-03T06:18:37.910Z,6.65
2022-08-03T06:21:14.979Z,6.78
2022-08-03T06:23:54.109Z,6.97
2022-08-03T06:26:28.981Z,7.78
2022-08-03T06:28:59.296Z,7.15
2022-08-03T06:31:32.356Z,8.25
2022-08-03T06:34:33.441Z,6.38
2022-08-03T06:36:58.473Z,6.68
2022-08-03T06:39:30.816Z,5.82
2022-08-03T06:41:59.530Z,7.28
2022-08-03T06:44:29.362Z,7.68
2022-08-03T06:46:58.841Z,8.55
2022-08-03T06:49:28.011Z,6.88
2022-08-03T06:52:04.186Z,6.10
2022-08-03T06:54:41.212Z,9.48
2022-08-03T06:57:13.360Z,7.43
2022-08-03T07:00:07.973Z,7.50
2022-08-03T07:02:33.035Z,7.22
2022-08-03T07:05:01.895Z,7.70
2022-08-03T07:07:30.307Z,5.45
2022-08-03T07:09:58.905Z,6.93
2022-08-03T07:12:35.328Z,6.88
2022-08-03T07:15:06.966Z,7.22
2022-08-03T07:17:36.890Z,6.15
2022-08-03T07:20:08.913Z,7.22
2022-08-03T07:22:38.065Z,6.22
2022-08-03T07:25:07.418Z,6.70
2022-08-03T07:27:35.920Z,5.78
2022-08-03T07:30:09.685Z,8.48
2022-08-03T07:32:49.752Z,8.18
2022-08-03T07:35:24.924Z,6.50
2022-08-03T07:37:54.226Z,8.13
2022-08-03T07:40:23.708Z,7.57
2022-08-03T07:42:56.605Z,7.30
2022-08-03T07:45:26.993Z,6.82
2022-08-03T07:47:55.664Z,8.20
2022-08-03T07:50:24.131Z,6.95
2022-08-03T07:52:53.759Z,7.70
2022-08-03T07:55:23.550Z,9.50
2022-08-03T07:58:02.358Z,4.60
2022-08-03T08:00:32.325Z,7.90
2022-08-03T08:03:00.827Z,9.68
2022-08-03T08:05:29.861Z,8.65
2022-08-03T08:07:58.471Z,10.32
2022-08-03T08:10:27.045Z,6.53
2022-08-03T08:12:55.676Z,9.25
2022-08-03T08:15:24.335Z,7.72
2022-08-03T08:17:56.575Z,6.63
2022-08-03T08:20:30.797Z,8.13
2022-08-03T08:23:02.808Z,6.85
2022-08-03T08:25:33.178Z,6.90
2022-08-03T08:28:29.235Z,6.60
2022-08-03T08:30:52.576Z,7.60
2022-08-03T08:33:23.955Z,7.38
2022-08-03T08:35:54.727Z,8.25
2022-08-03T08:38:23.907Z,10.00
2022-08-03T08:40:52.633Z,7.13
2022-08-03T08:43:21.127Z,9.70
2022-08-03T08:45:51.545Z,5.82
2022-08-03T08:48:25.915Z,6.50
2022-08-03T08:50:55.572Z,7.18
2022-08-03T08:53:27.241Z,7.18
2022-08-03T08:56:01.493Z,5.15
2022-08-03T08:58:36.124Z,7.93
2022-08-03T09:01:04.884Z,6.45
2022-08-03T09:03:36.572Z,9.27
2022-08-03T09:06:05.585Z,7.82
2022-08-03T09:08:34.366Z,7.63
2022-08-03T09:11:02.856Z,7.75
2022-08-03T09:13:31.884Z,7.95
2022-08-03T09:16:14.569Z,6.15
2022-08-03T09:18:46.113Z,8.02
2022-08-03T09:21:36.047Z,6.40
2022-08-03T09:24:13.029Z,5.75
2022-08-03T09:26:54.919Z,4.95
2022-08-03T09:29:24.099Z,8.18
2022-08-03T09:32:03.186Z,5.78
2022-08-03T09:34:33.710Z,8.68
2022-08-03T09:37:02.093Z,8.90
2022-08-03T09:39:41.678Z,8.75
2022-08-03T09:42:14.856Z,8.43
2022-08-03T09:44:45.649Z,5.28
2022-08-03T09:47:15.493Z,7.43
2022-08-03T09:49:59.116Z,8.23
2022-08-03T09:52:38.651Z,5.07
2022-08-03T09:56:32.689Z,3.50
2022-08-03T09:58:09.353Z,3.70
2022-08-03T10:00:55.229Z,3.72
2022-08-03T10:03:24.717Z,3.28
2022-08-03T10:05:59.539Z,8.43
2022-08-03T10:08:28.758Z,4.05
2022-08-03T10:10:58.839Z,4.85
2022-08-03T10:13:27.378Z,5.80
2022-08-03T10:16:22.546Z,6.65
2022-08-03T10:18:44.326Z,6.18
2022-08-03T10:21:18.584Z,9.23
2022-08-03T10:23:48.129Z,9.15
2022-08-03T10:26:20.654Z,4.18
2022-08-03T10:28:53.505Z,7.22
2022-08-03T10:31:23.875Z,42.30
2022-08-03T10:33:53.914Z,23.02
2022-08-03T10:36:26.206Z,18.48
2022-08-03T10:38:56.734Z,12.27
2022-08-03T10:41:32.605Z,9.02
2022-08-03T10:44:06.919Z,8.55
2022-08-03T10:46:41.478Z,8.10
2022-08-03T10:49:15.900Z,8.15
2022-08-03T10:51:46.864Z,8.48
2022-08-03T10:54:56.937Z,7.22
2022-08-03T10:58:00.746Z,6.35
2022-08-03T11:00:30.629Z,5.97
2022-08-03T11:03:10.775Z,6.20
2022-08-03T11:05:43.803Z,5.38
2022-08-03T11:08:29.467Z,6.00
2022-08-03T11:11:00.956Z,5.53
2022-08-03T11:13:34.129Z,7.30
2022-08-03T11:16:21.967Z,4.60
2022-08-03T11:18:58.761Z,5.63
2022-08-03T11:22:00.440Z,3.53
2022-08-03T11:25:04.823Z,4.93
2022-08-03T11:27:35.095Z,5.45
2022-08-03T11:30:08.006Z,5.97
2022-08-03T11:32:58.526Z,3.92
2022-08-03T11:35:29.293Z,4.10
2022-08-03T11:38:08.798Z,4.82
2022-08-03T11:40:41.556Z,4.20
2022-08-03T11:43:11.324Z,4.38
2022-08-03T11:45:40.135Z,3.70
2022-08-03T11:48:17.119Z,4.35
2022-08-03T11:50:46.614Z,2.97
2022-08-03T11:53:20.539Z,5.30
2022-08-03T11:55:50.379Z,4.47
2022-08-03T11:59:03.379Z,3.03
2022-08-03T12:02:00.426Z,4.85
2022-08-03T12:04:30.045Z,4.53
2022-08-03T12:07:02.104Z,4.10
2022-08-03T12:09:30.659Z,2.97
2022-08-03T12:12:01.386Z,1.88
2022-08-03T12:14:49.872Z,2.30
2022-08-03T12:17:21.334Z,4.15
2022-08-03T12:19:50.204Z,5.53
2022-08-03T12:22:32.154Z,3.20
2022-08-03T12:25:00.655Z,3.38
2022-08-03T12:27:30.874Z,2.17
2022-08-03T12:30:01.803Z,2.45
2022-08-03T12:32:31.035Z,3.05
2022-08-03T12:35:01.956Z,4.47
2022-08-03T12:37:31.234Z,3.15
2022-08-03T12:40:10.379Z,3.10
2022-08-03T12:42:41.485Z,3.67
2022-08-03T12:45:24.094Z,3.38
2022-08-03T12:47:55.225Z,2.45
2022-08-03T12:50:29.060Z,2.00
2022-08-03T12:52:58.404Z,1.83
2022-08-03T12:55:56.268Z,2.90
2022-08-03T12:58:34.682Z,2.03
2022-08-03T13:01:09.499Z,2.70
2022-08-03T13:03:49.890Z,2.10
2022-08-03T13:06:21.806Z,1.58
2022-08-03T13:08:52.095Z,2.42
2022-08-03T13:11:53.648Z,2.58
2022-08-03T13:14:19.362Z,4.60
2022-08-03T13:16:48.400Z,1.77
2022-08-03T13:19:16.937Z,2.00
2022-08-03T13:22:01.384Z,2.80
2022-08-03T13:24:34.282Z,2.85
2022-08-03T13:28:01.908Z,2.28
2022-08-03T13:30:02.500Z,7.65
2022-08-03T13:32:31.254Z,4.00
2022-08-03T13:34:59.706Z,7.15
2022-08-03T13:37:28.417Z,5.85
2022-08-03T13:40:23.706Z,6.72
2022-08-03T13:43:44.855Z,11.48
2022-08-03T13:46:16.365Z,8.65
2022-08-03T13:48:44.872Z,8.82
2022-08-03T13:51:22.361Z,13.13
2022-08-03T13:53:51.790Z,11.43
2022-08-03T13:56:27.208Z,13.40
2022-08-03T13:59:11.611Z,10.95
2022-08-03T14:02:01.685Z,9.43
2022-08-03T14:04:30.395Z,15.73
2022-08-03T14:06:59.018Z,10.20
2022-08-03T14:09:27.485Z,11.98
2022-08-03T14:12:08.356Z,8.95
2022-08-03T14:14:37.658Z,15.55
2022-08-03T14:17:07.585Z,6.20
2022-08-03T14:19:49.928Z,7.70
2022-08-03T14:22:25.315Z,8.07
2022-08-03T14:24:57.061Z,5.88
2022-08-03T14:27:26.701Z,7.22
2022-08-03T14:30:00.062Z,6.60
2022-08-03T14:32:30.600Z,5.90
2022-08-03T14:35:01.063Z,4.15
2022-08-03T14:37:30.850Z,4.25
2022-08-03T14:40:00.930Z,5.03
2022-08-03T14:42:35.400Z,8.07
2022-08-03T14:45:09.002Z,4.22
2022-08-03T14:50:12.572Z,5.00
2022-08-03T14:50:40.528Z,3.92
2022-08-03T14:53:11.587Z,6.95
2022-08-03T14:55:50.607Z,5.95
2022-08-03T14:58:20.947Z,7.40
2022-08-03T15:00:51.321Z,6.43
2022-08-03T15:03:23.994Z,6.10
2022-08-03T15:05:53.193Z,4.55
2022-08-03T15:08:21.949Z,3.90
2022-08-03T15:10:50.912Z,2.95
2022-08-03T15:13:19.765Z,3.60
2022-08-03T15:15:48.545Z,3.53
2022-08-03T15:18:17.325Z,2.80
2022-08-03T15:20:49.237Z,5.10
2022-08-03T15:23:18.721Z,2.25
2022-08-03T15:26:28.792Z,2.88
2022-08-03T15:28:37.462Z,3.15
2022-08-03T15:31:07.161Z,2.42
2022-08-03T15:33:35.755Z,2.63
2022-08-03T15:36:06.555Z,4.20
2022-08-03T15:38:35.097Z,3.33
2022-08-03T15:41:03.679Z,2.00
2022-08-03T15:43:32.136Z,2.17
2022-08-03T15:46:28.398Z,2.50
2022-08-03T15:48:48.918Z,1.40
2022-08-03T15:51:18.807Z,1.45
2022-08-03T15:53:47.255Z,2.38
2022-08-03T15:56:18.693Z,1.85
2022-08-03T15:59:04.450Z,1.77
2022-08-03T16:01:36.582Z,3.28
2022-08-03T16:04:05.165Z,1.63
2022-08-03T16:06:36.332Z,2.72
2022-08-03T16:09:23.886Z,2.13
2022-08-03T16:11:55.735Z,2.40
2022-08-03T16:14:32.618Z,4.20
2022-08-03T16:17:04.777Z,2.67
2022-08-03T16:19:33.522Z,2.03
2022-08-03T16:22:03.458Z,2.70
2022-08-03T16:24:32.285Z,2.30
2022-08-03T16:27:00.991Z,2.55
2022-08-03T16:29:30.135Z,2.53
2022-08-03T16:31:58.525Z,2.35
2022-08-03T16:34:27.189Z,2.72
2022-08-03T16:36:56.004Z,1.85
2022-08-03T16:39:25.951Z,2.33
2022-08-03T16:42:00.731Z,2.22
2022-08-03T16:44:31.859Z,3.58
2022-08-03T16:47:00.929Z,2.33
2022-08-03T16:49:54.429Z,2.22
2022-08-03T16:52:17.903Z,1.85
2022-08-03T16:54:52.877Z,1.58
2022-08-03T16:57:59.002Z,1.83
2022-08-03T17:00:32.938Z,1.67
2022-08-03T17:03:12.834Z,3.63
2022-08-03T17:05:50.040Z,0.77
2022-08-03T17:08:26.900Z,2.97
2022-08-03T17:10:57.954Z,1.67
2022-08-03T17:13:38.849Z,1.73
2022-08-03T17:16:15.160Z,1.98
2022-08-03T17:18:52.697Z,3.03
2022-08-03T17:21:29.329Z,1.35
2022-08-03T17:24:02.775Z,1.58
2022-08-03T17:26:35.425Z,2.33
2022-08-03T17:29:12.618Z,1.65
2022-08-03T17:31:48.600Z,1.52
2022-08-03T17:34:18.923Z,1.48
2022-08-03T17:37:05.513Z,1.88
2022-08-03T17:42:30.268Z,1.75
2022-08-03T17:45:02.380Z,2.22
2022-08-03T17:47:42.073Z,1.35
2022-08-03T17:50:27.999Z,1.65
2022-08-03T17:53:07.509Z,2.22
2022-08-03T17:56:36.142Z,1.58
2022-08-03T18:02:22.329Z,1.17
2022-08-03T18:05:16.244Z,1.42
2022-08-03T18:07:47.915Z,1.73
2022-08-03T18:10:22.365Z,2.00
2022-08-03T18:12:54.956Z,3.55
2022-08-03T18:15:32.007Z,1.20
2022-08-03T18:18:10.814Z,1.77
2022-08-03T18:20:42.348Z,1.35
2022-08-03T18:23:25.261Z,1.40
2022-08-03T18:26:04.697Z,2.00
2022-08-03T18:28:35.255Z,1.20
2022-08-03T18:31:07.443Z,1.65
2022-08-03T18:34:18.377Z,2.17
2022-08-03T18:36:31.829Z,1.10
2022-08-03T18:39:01.731Z,1.55
2022-08-03T18:41:33.604Z,1.50
2022-08-03T18:44:08.265Z,2.00
2022-08-03T18:46:49.448Z,2.33
2022-08-03T18:49:30.384Z,1.20
2022-08-03T18:52:12.172Z,3.17
2022-08-03T18:55:02.542Z,2.00
2022-08-03T18:57:46.420Z,1.90
2022-08-03T19:00:17.575Z,1.77
2022-08-03T19:03:02.614Z,1.42
2022-08-03T19:05:56.529Z,3.17
2022-08-03T19:08:48.317Z,2.75
2022-08-03T19:11:28.149Z,1.25
2022-08-03T19:13:59.809Z,3.15
2022-08-03T19:16:34.303Z,1.10
2022-08-03T19:19:04.604Z,3.05
2022-08-03T19:21:36.454Z,2.17
2022-08-03T19:24:10.037Z,2.60
2022-08-03T19:26:39.903Z,3.35
2022-08-03T19:29:15.156Z,4.53
2022-08-03T19:32:02.715Z,2.38
2022-08-03T19:34:33.089Z,3.38
2022-08-03T19:37:02.470Z,2.47
2022-08-03T19:39:31.695Z,2.63
2022-08-03T19:42:12.221Z,2.45
2022-08-03T19:44:57.199Z,7.70
2022-08-03T19:47:31.326Z,23.95
2022-08-03T19:50:10.406Z,36.90
2022-08-03T19:52:45.314Z,22.58
2022-08-03T19:55:13.781Z,23.77
2022-08-03T20:00:38.209Z,26.02
2022-08-03T20:04:08.654Z,26.20
2022-08-03T20:07:08.014Z,26.63
2022-08-03T20:09:54.346Z,26.48
2022-08-03T20:12:28.571Z,26.95
2022-08-03T20:14:58.797Z,25.15
2022-08-03T20:17:54.119Z,30.73
2022-08-03T20:20:21.277Z,21.50
2022-08-03T20:22:57.813Z,22.20
2022-08-03T20:25:38.934Z,23.55
2022-08-03T20:28:30.390Z,20.35
2022-08-03T20:30:59.874Z,18.92
2022-08-03T20:33:46.358Z,20.40
2022-08-03T20:36:17.900Z,17.83
2022-08-03T20:38:48.390Z,18.38
2022-08-03T20:41:17.626Z,20.90
2022-08-03T20:43:46.486Z,13.20
2022-08-03T20:46:32.745Z,18.58
2022-08-03T20:49:07.696Z,18.60
2022-08-03T20:51:50.697Z,13.63
2022-08-03T20:54:30.853Z,20.73
2022-08-03T20:57:04.313Z,16.52
2022-08-03T20:59:50.407Z,14.40
2022-08-03T21:02:29.071Z,12.25
2022-08-03T21:04:57.886Z,18.98
2022-08-03T21:08:03.839Z,13.20
2022-08-03T21:10:20.335Z,16.20
2022-08-03T21:13:05.867Z,2.05
2022-08-03T21:13:10.447Z,23.35
2022-08-03T21:13:15.501Z,15.30
2022-08-03T21:16:11.246Z,13.38
2022-08-03T21:18:44.030Z,16.50
2022-08-03T21:21:16.266Z,12.05
2022-08-03T21:23:48.081Z,11.95
2022-08-03T21:26:20.250Z,13.57
2022-08-03T21:28:51.566Z,10.70
2022-08-03T21:31:26.231Z,11.52
2022-08-03T21:33:57.855Z,13.00
2022-08-03T21:36:28.195Z,12.30
2022-08-03T21:39:00.998Z,11.82
2022-08-03T21:41:32.516Z,11.50
2022-08-03T21:44:01.763Z,11.70
2022-08-03T21:46:34.897Z,11.10
2022-08-03T21:50:06.776Z,9.52
2022-08-03T21:52:15.206Z,14.20
2022-08-03T21:55:07.733Z,11.75
2022-08-03T21:57:46.676Z,12.27
2022-08-03T22:00:21.932Z,9.32
2022-08-03T22:02:56.183Z,11.82
2022-08-03T22:08:18.105Z,10.23
2022-08-03T22:10:49.306Z,11.57
2022-08-03T22:13:43.251Z,8.77
2022-08-03T22:16:15.456Z,9.13
2022-08-03T22:18:47.425Z,9.57
2022-08-03T22:21:35.612Z,8.07
2022-08-03T22:24:08.456Z,10.02
2022-08-03T22:27:04.678Z,9.85
2022-08-03T22:32:13.966Z,9.97
2022-08-03T22:34:50.855Z,10.02
2022-08-03T22:37:24.450Z,9.52
2022-08-03T22:39:59.835Z,7.53
2022-08-03T22:42:34.390Z,7.80
2022-08-03T22:45:07.386Z,10.52
2022-08-03T22:47:37.766Z,9.07
2022-08-03T22:50:31.495Z,8.38
2022-08-03T22:52:58.817Z,11.15
2022-08-03T22:55:29.130Z,7.65
2022-08-03T22:58:14.016Z,7.07
2022-08-03T23:01:06.935Z,10.60
2022-08-03T23:06:53.167Z,8.00
2022-08-03T23:12:40.625Z,6.10
2022-08-03T23:15:11.486Z,7.55
2022-08-03T23:17:57.431Z,8.65
2022-08-03T23:20:29.015Z,8.10
2022-08-03T23:22:58.116Z,9.13
2022-08-03T23:25:27.096Z,7.65
2022-08-03T23:28:05.461Z,8.52
2022-08-03T23:30:36.525Z,7.47
2022-08-03T23:33:08.075Z,7.97
2022-08-03T23:36:18.817Z,8.07
2022-08-03T23:38:44.928Z,6.82
2022-08-03T23:41:15.055Z,6.68
2022-08-03T23:43:52.042Z,6.82
2022-08-03T23:46:23.395Z,6.85
2022-08-03T23:48:53.690Z,7.20
2022-08-03T23:51:38.185Z,7.10
2022-08-03T23:54:16.546Z,8.18
2022-08-03T23:56:55.455Z,6.55
2022-08-03T23:59:30.577Z,7.38
